Terminal Aerodrome Forecast
Issued by NWS Portland, OR

Home | Current Version | Previous Version | Text Only | Print | Product List | Glossary On
Versions: 1 2 3 4 5 6 7 8 9 10 11 12 13 14 15 16 17 18 19 20 21 22 23 24 25 26 27
000
FTUS46 KPQR 010532 CCA
TAFHIO
TAF COR
KHIO 010532Z 0106/0206 00000KT 1/2SM FG VV002
      TEMPO 0106/0110 1/4SM FG VV001
     FM011700 00000KT 1SM BR OVC004
     FM011900 VRB03KT 3SM BR BKN008
     FM012000 32003KT P6SM VCSH SCT040 BKN250=

USA.gov is the U.S. government's official web portal to all federal, state and local government web resources and services.